createdAt,value
2023-04-09T00:02:25.448Z,7.60
2023-04-09T00:04:54.906Z,7.80
2023-04-09T00:07:26.093Z,8.90
2023-04-09T00:09:55.587Z,8.20
2023-04-09T00:12:24.789Z,7.70
2023-04-09T00:14:53.807Z,7.40
2023-04-09T00:17:22.624Z,7.80
2023-04-09T00:19:51.426Z,7.00
2023-04-09T00:22:20.081Z,7.30
2023-04-09T00:24:50.052Z,7.30
2023-04-09T00:27:18.618Z,8.30
2023-04-09T00:29:48.200Z,8.10
2023-04-09T00:32:17.974Z,8.70
2023-04-09T00:34:47.345Z,8.40
2023-04-09T00:37:17.072Z,7.30
2023-04-09T00:39:47.199Z,7.10
2023-04-09T00:42:18.149Z,7.20
2023-04-09T00:44:47.496Z,7.50
2023-04-09T00:47:16.599Z,7.40
2023-04-09T00:49:46.344Z,7.30
2023-04-09T00:52:15.705Z,7.20
2023-04-09T00:54:44.853Z,8.40
2023-04-09T00:57:14.169Z,7.30
2023-04-09T00:59:45.153Z,7.20
2023-04-09T01:02:14.875Z,7.50
2023-04-09T01:04:44.817Z,7.50
2023-04-09T01:07:23.452Z,8.30
2023-04-09T01:10:01.901Z,7.30
2023-04-09T01:12:38.334Z,7.30
2023-04-09T01:15:12.909Z,7.10
2023-04-09T01:17:49.311Z,8.70
2023-04-09T01:20:27.356Z,7.20
2023-04-09T01:23:09.192Z,7.10
2023-04-09T01:26:08.511Z,7.60
2023-04-09T01:28:50.902Z,7.70
2023-04-09T01:31:23.039Z,7.20
2023-04-09T01:33:54.054Z,8.50
2023-04-09T01:36:24.348Z,7.40
2023-04-09T01:38:54.294Z,7.10
2023-04-09T01:41:25.155Z,7.50
2023-04-09T01:43:57.125Z,7.30
2023-04-09T01:46:27.583Z,8.10
2023-04-09T01:49:03.847Z,7.20
2023-04-09T01:51:34.811Z,7.20
2023-04-09T01:54:05.922Z,8.30
2023-04-09T01:56:43.534Z,7.70
2023-04-09T01:59:14.965Z,7.00
2023-04-09T02:01:48.950Z,7.50
2023-04-09T02:04:25.730Z,7.10
2023-04-09T02:07:08.776Z,7.20
2023-04-09T02:16:30.108Z,7.10
2023-04-09T02:22:14.983Z,7.10
2023-04-09T02:24:48.548Z,7.60
2023-04-09T02:27:17.743Z,7.90
2023-04-09T02:29:46.597Z,7.10
2023-04-09T02:32:16.815Z,7.20
2023-04-09T02:34:46.037Z,7.20
2023-04-09T02:37:15.134Z,7.10
2023-04-09T02:39:43.520Z,8.20
2023-04-09T02:42:12.663Z,7.50
2023-04-09T02:44:42.078Z,7.00
2023-04-09T02:47:11.070Z,8.30
2023-04-09T02:49:42.032Z,7.10
2023-04-09T02:52:12.411Z,7.30
2023-04-09T02:54:41.205Z,7.10
2023-04-09T03:00:32.805Z,7.10
2023-04-09T03:03:01.667Z,7.50
2023-04-09T03:05:31.875Z,8.00
2023-04-09T03:08:01.167Z,7.10
2023-04-09T03:10:31.571Z,7.00
2023-04-09T03:13:00.872Z,7.00
2023-04-09T03:15:29.783Z,7.50
2023-04-09T03:17:58.681Z,7.30
2023-04-09T03:20:27.595Z,6.90
2023-04-09T03:22:57.651Z,7.00
2023-04-09T03:25:33.069Z,7.90
2023-04-09T03:28:10.889Z,7.20
2023-04-09T03:30:44.134Z,7.00
2023-04-09T03:33:13.305Z,7.00
2023-04-09T03:36:09.200Z,7.10
2023-04-09T03:39:02.186Z,7.30
2023-04-09T03:41:37.859Z,8.10
2023-04-09T03:44:11.576Z,8.10
2023-04-09T03:47:10.233Z,7.30
2023-04-09T03:49:40.724Z,7.10
2023-04-09T03:52:20.369Z,7.20
2023-04-09T03:54:58.676Z,7.00
2023-04-09T03:57:28.878Z,7.30
2023-04-09T03:59:58.090Z,8.00
2023-04-09T04:02:30.503Z,7.10
2023-04-09T04:05:03.766Z,7.10
2023-04-09T04:07:38.118Z,7.00
2023-04-09T04:10:16.221Z,7.10
2023-04-09T04:12:47.624Z,6.90
2023-04-09T04:15:43.611Z,6.90
2023-04-09T04:18:14.674Z,6.90
2023-04-09T04:20:49.600Z,6.90
2023-04-09T04:23:18.944Z,6.80
2023-04-09T04:25:57.065Z,7.00
2023-04-09T04:28:35.735Z,6.80
2023-04-09T04:31:10.093Z,6.80
2023-04-09T04:33:39.618Z,6.80
2023-04-09T04:36:14.955Z,6.70
2023-04-09T04:38:47.706Z,6.70
2023-04-09T04:41:23.257Z,7.10
2023-04-09T04:44:04.745Z,6.70
2023-04-09T04:46:33.593Z,6.70
2023-04-09T04:49:01.904Z,7.00
2023-04-09T04:51:32.603Z,7.00
2023-04-09T04:54:08.829Z,6.60
2023-04-09T04:56:39.351Z,6.60
2023-04-09T04:59:19.255Z,6.80
2023-04-09T05:02:07.412Z,6.60
2023-04-09T05:04:45.554Z,6.60
2023-04-09T05:07:17.323Z,6.60
2023-04-09T05:09:55.250Z,6.60
2023-04-09T05:12:25.361Z,6.60
2023-04-09T05:14:54.930Z,6.60
2023-04-09T05:17:23.495Z,6.60
2023-04-09T05:19:57.864Z,7.50
2023-04-09T05:22:34.785Z,6.60
2023-04-09T05:25:03.429Z,7.40
2023-04-09T05:27:34.785Z,7.50
2023-04-09T05:30:04.373Z,7.90
2023-04-09T05:32:33.223Z,6.70
2023-04-09T05:35:02.938Z,7.50
2023-04-09T05:37:34.139Z,6.70
2023-04-09T05:43:28.553Z,6.70
2023-04-09T05:45:59.491Z,6.60
2023-04-09T06:08:22.090Z,6.90
2023-04-09T06:18:00.159Z,7.00
2023-04-09T06:24:24.274Z,7.10
2023-04-09T06:31:00.858Z,7.30
2023-04-09T07:22:13.724Z,8.20
2023-04-09T07:24:43.775Z,8.30
2023-04-09T07:27:12.074Z,8.30
2023-04-09T07:29:41.067Z,8.50
2023-04-09T07:32:10.382Z,9.00
2023-04-09T07:34:39.904Z,8.40
2023-04-09T07:37:09.234Z,9.20
2023-04-09T07:39:37.843Z,8.40
2023-04-09T07:42:07.571Z,8.50
2023-04-09T07:44:36.491Z,8.50
2023-04-09T07:47:07.098Z,8.60
2023-04-09T07:49:37.358Z,8.60
2023-04-09T07:52:08.532Z,8.70
2023-04-09T07:54:38.165Z,8.70
2023-04-09T07:57:24.727Z,9.30
2023-04-09T07:59:57.089Z,8.80
2023-04-09T08:05:44.502Z,8.90
2023-04-09T08:15:29.547Z,9.10
2023-04-09T08:17:58.613Z,9.20
2023-04-09T08:20:29.880Z,9.90
2023-04-09T08:22:59.523Z,9.40
2023-04-09T08:25:28.687Z,9.40
2023-04-09T08:27:58.195Z,9.00
2023-04-09T08:30:26.968Z,9.20
2023-04-09T08:32:57.772Z,9.60
2023-04-09T08:47:21.722Z,10.10
2023-04-09T08:49:58.674Z,10.20
2023-04-09T08:52:34.606Z,10.30
2023-04-09T08:55:03.442Z,11.50
2023-04-09T08:57:32.226Z,10.50
2023-04-09T09:00:01.713Z,10.70
2023-04-09T09:02:31.613Z,11.20
2023-04-09T09:05:06.040Z,10.60
2023-04-09T09:10:43.867Z,11.60
2023-04-09T09:13:22.739Z,11.00
2023-04-09T09:16:06.093Z,11.20
2023-04-09T09:18:41.539Z,11.10
2023-04-09T09:21:14.636Z,11.70
2023-04-09T09:23:45.995Z,11.50
2023-04-09T09:26:19.537Z,12.00
2023-04-09T09:28:50.221Z,11.70
2023-04-09T09:31:21.843Z,12.00
2023-04-09T09:33:51.861Z,13.10
2023-04-09T09:36:35.632Z,13.30
2023-04-09T09:39:10.630Z,12.30
2023-04-09T09:41:43.796Z,12.50
2023-04-09T09:47:20.990Z,12.80
2023-04-09T09:49:51.148Z,13.70
2023-04-09T09:52:26.926Z,13.20
2023-04-09T09:54:59.007Z,13.40
2023-04-09T09:57:31.605Z,13.60
2023-04-09T10:00:04.098Z,13.80
2023-04-09T10:02:45.732Z,14.00
2023-04-09T10:05:14.342Z,14.10
2023-04-09T10:07:44.974Z,14.30
2023-04-09T10:10:13.778Z,14.70
2023-04-09T10:12:45.482Z,14.70
2023-04-09T10:15:16.730Z,14.90
2023-04-09T10:17:46.400Z,15.20
2023-04-09T10:20:22.174Z,15.30
2023-04-09T10:22:53.141Z,15.50
2023-04-09T10:25:21.843Z,15.70
2023-04-09T10:28:02.187Z,15.90
2023-04-09T10:30:34.611Z,16.10
2023-04-09T10:33:13.663Z,16.20
2023-04-09T10:35:42.470Z,16.40
2023-04-09T10:38:11.543Z,16.60
2023-04-09T10:40:49.776Z,16.70
2023-04-09T10:43:22.296Z,16.90
2023-04-09T10:45:59.614Z,17.00
2023-04-09T10:48:34.447Z,17.30
2023-04-09T10:51:39.849Z,17.10
2023-04-09T10:54:49.245Z,17.30
2023-04-09T10:57:23.341Z,17.40
2023-04-09T10:59:55.832Z,17.40
2023-04-09T11:03:00.254Z,17.40
2023-04-09T11:05:34.844Z,17.50
2023-04-09T11:08:30.476Z,17.60
2023-04-09T11:11:02.004Z,17.80
2023-04-09T11:13:33.192Z,17.90
2023-04-09T11:16:07.176Z,18.00
2023-04-09T11:18:37.230Z,18.20
2023-04-09T11:21:05.987Z,18.30
2023-04-09T11:23:36.046Z,18.60
2023-04-09T11:26:05.409Z,18.60
2023-04-09T11:28:35.931Z,18.50
2023-04-09T11:31:08.103Z,18.60
2023-04-09T11:33:36.736Z,18.70
2023-04-09T11:36:07.579Z,18.80
2023-04-09T11:38:38.019Z,18.90
2023-04-09T11:41:06.555Z,19.00
2023-04-09T11:43:38.278Z,19.10
2023-04-09T11:46:09.588Z,19.10
2023-04-09T11:48:38.232Z,19.00
2023-04-09T11:51:07.430Z,19.00
2023-04-09T11:53:38.993Z,19.00
2023-04-09T11:56:08.328Z,19.00
2023-04-09T11:58:37.704Z,19.00
2023-04-09T12:01:07.584Z,18.90
2023-04-09T12:03:37.779Z,18.90
2023-04-09T12:06:09.399Z,18.80
2023-04-09T12:08:38.641Z,18.80
2023-04-09T12:11:11.957Z,18.80
2023-04-09T12:13:43.474Z,18.80
2023-04-09T12:16:14.219Z,18.90
2023-04-09T12:18:43.151Z,18.90
2023-04-09T12:21:11.731Z,18.80
2023-04-09T12:23:40.127Z,18.80
2023-04-09T12:26:12.391Z,18.90
2023-04-09T12:28:41.357Z,18.80
2023-04-09T12:31:12.686Z,18.90
2023-04-09T12:33:43.239Z,18.90
2023-04-09T12:36:12.116Z,19.00
2023-04-09T12:38:41.282Z,19.00
2023-04-09T12:41:10.551Z,19.00
2023-04-09T12:43:40.576Z,19.00
2023-04-09T12:46:09.692Z,19.30
2023-04-09T12:48:38.868Z,19.00
2023-04-09T12:51:11.478Z,19.00
2023-04-09T12:53:40.487Z,19.50
2023-04-09T12:56:10.352Z,19.10
2023-04-09T12:58:39.008Z,19.00
2023-04-09T13:01:08.565Z,19.10
2023-04-09T13:03:39.511Z,19.00
2023-04-09T13:06:10.282Z,19.10
2023-04-09T13:08:39.742Z,19.00
2023-04-09T13:11:09.178Z,19.10
2023-04-09T13:13:37.909Z,19.10
2023-04-09T13:16:07.544Z,19.30
2023-04-09T13:18:36.300Z,19.10
2023-04-09T13:21:04.945Z,19.00
2023-04-09T13:23:34.943Z,19.00
2023-04-09T13:26:03.507Z,18.90
2023-04-09T13:28:32.268Z,18.80
2023-04-09T13:31:00.766Z,18.80
2023-04-09T13:33:29.363Z,18.70
2023-04-09T13:35:58.380Z,18.70
2023-04-09T13:38:26.989Z,18.70
2023-04-09T13:40:56.873Z,18.60
2023-04-09T13:43:28.241Z,18.60
2023-04-09T13:45:57.573Z,18.50
2023-04-09T13:48:26.384Z,18.40
2023-04-09T13:50:55.026Z,18.40
2023-04-09T13:53:25.163Z,18.40
2023-04-09T13:55:53.720Z,18.30
2023-04-09T13:58:30.879Z,18.30
2023-04-09T14:01:02.480Z,18.50
2023-04-09T14:03:31.597Z,18.20
2023-04-09T14:06:00.152Z,18.40
2023-04-09T14:08:28.716Z,18.20
2023-04-09T14:10:57.544Z,18.30
2023-04-09T14:13:27.477Z,18.20
2023-04-09T14:15:56.737Z,18.40
2023-04-09T14:18:26.607Z,18.20
2023-04-09T14:20:54.998Z,18.20
2023-04-09T14:23:23.518Z,18.20
2023-04-09T14:25:52.025Z,18.20
2023-04-09T14:28:20.694Z,18.30
2023-04-09T14:30:50.593Z,18.10
2023-04-09T14:33:19.013Z,18.10
2023-04-09T14:35:47.565Z,18.00
2023-04-09T14:38:16.594Z,18.10
2023-04-09T14:40:45.282Z,18.00
2023-04-09T14:43:13.880Z,18.00
2023-04-09T14:45:42.671Z,18.00
2023-04-09T14:48:12.676Z,18.00
2023-04-09T14:50:41.305Z,18.10
2023-04-09T14:53:09.988Z,18.10
2023-04-09T14:55:39.186Z,18.20
2023-04-09T14:58:08.489Z,18.10
2023-04-09T15:00:38.976Z,18.20
2023-04-09T15:03:07.805Z,18.20
2023-04-09T15:05:38.209Z,18.30
2023-04-09T15:08:06.875Z,18.30
2023-04-09T15:10:38.064Z,18.30
2023-04-09T15:13:07.286Z,18.40
2023-04-09T15:15:36.382Z,18.30
2023-04-09T15:18:06.371Z,18.30
2023-04-09T15:20:39.980Z,18.30
2023-04-09T15:23:08.807Z,18.20
2023-04-09T15:25:37.464Z,18.30
2023-04-09T15:28:07.153Z,18.20
2023-04-09T15:30:36.272Z,18.10
2023-04-09T15:33:06.570Z,18.10
2023-04-09T15:35:36.365Z,18.10
2023-04-09T15:38:06.261Z,18.10
2023-04-09T15:40:34.696Z,18.00
2023-04-09T15:43:03.043Z,18.00
2023-04-09T15:45:31.566Z,18.00
2023-04-09T15:48:00.030Z,18.00
2023-04-09T15:50:28.626Z,18.00
2023-04-09T15:52:57.045Z,18.00
2023-04-09T15:55:27.134Z,18.00
2023-04-09T15:57:55.443Z,18.20
2023-04-09T16:00:24.228Z,18.00
2023-04-09T16:02:53.425Z,17.90
2023-04-09T16:05:21.992Z,17.90
2023-04-09T16:07:52.177Z,17.90
2023-04-09T16:10:20.614Z,18.10
2023-04-09T16:12:50.727Z,17.90
2023-04-09T16:15:19.310Z,17.80
2023-04-09T16:17:47.645Z,17.80
2023-04-09T16:20:16.248Z,17.80
2023-04-09T16:22:44.749Z,17.90
2023-04-09T16:25:13.164Z,18.00
2023-04-09T16:27:41.529Z,17.80
2023-04-09T16:30:12.637Z,17.70
2023-04-09T16:32:41.166Z,17.70
2023-04-09T16:35:09.648Z,17.70
2023-04-09T16:37:38.830Z,17.80
2023-04-09T16:40:08.830Z,17.90
2023-04-09T16:42:37.325Z,17.60
2023-04-09T16:45:06.657Z,17.70
2023-04-09T16:47:36.548Z,17.60
2023-04-09T16:50:10.433Z,17.50
2023-04-09T16:52:39.571Z,17.50
2023-04-09T16:55:09.373Z,17.70
2023-04-09T16:57:38.227Z,17.50
2023-04-09T17:00:08.576Z,17.40
2023-04-09T17:02:39.585Z,17.40
2023-04-09T17:05:09.313Z,17.40
2023-04-09T17:07:38.076Z,17.40
2023-04-09T17:10:08.313Z,17.50
2023-04-09T17:12:36.918Z,17.40
2023-04-09T17:15:06.452Z,17.30
2023-04-09T17:17:35.075Z,17.30
2023-04-09T17:20:05.911Z,17.30
2023-04-09T17:22:35.223Z,17.20
2023-04-09T17:25:04.865Z,17.20
2023-04-09T17:27:33.306Z,17.20
2023-04-09T17:30:01.960Z,17.10
2023-04-09T17:32:30.613Z,17.10
2023-04-09T17:34:59.662Z,17.40
2023-04-09T17:37:29.888Z,17.00
2023-04-09T17:39:58.186Z,17.00
2023-04-09T17:42:26.517Z,17.00
2023-04-09T17:44:55.027Z,16.90
2023-04-09T17:47:23.504Z,16.80
2023-04-09T17:49:53.163Z,16.80
2023-04-09T17:52:22.511Z,16.90
2023-04-09T17:54:52.248Z,16.60
2023-04-09T17:57:20.720Z,16.60
2023-04-09T17:59:49.086Z,16.40
2023-04-09T18:02:17.598Z,16.40
2023-04-09T18:04:46.115Z,16.60
2023-04-09T18:07:14.772Z,16.20
2023-04-09T18:09:43.102Z,16.00
2023-04-09T18:12:12.930Z,16.20
2023-04-09T18:14:41.311Z,15.90
2023-04-09T18:17:09.642Z,15.80
2023-04-09T18:19:37.930Z,16.00
2023-04-09T18:22:06.319Z,15.70
2023-04-09T18:24:35.133Z,15.70
2023-04-09T18:27:03.573Z,15.50
2023-04-09T18:29:33.376Z,15.50
2023-04-09T18:32:01.701Z,15.40
2023-04-09T18:34:30.114Z,15.40
2023-04-09T18:36:58.648Z,15.30
2023-04-09T18:39:27.478Z,15.20
2023-04-09T18:41:57.126Z,15.10
2023-04-09T18:44:26.101Z,15.50
2023-04-09T18:46:56.225Z,15.00
2023-04-09T18:49:26.878Z,14.90
2023-04-09T18:51:56.763Z,14.90
2023-04-09T18:54:25.829Z,14.90
2023-04-09T18:56:54.148Z,14.70
2023-04-09T18:59:22.633Z,14.90
2023-04-09T19:01:51.375Z,14.70
2023-04-09T19:04:21.554Z,14.70
2023-04-09T19:06:50.285Z,14.40
2023-04-09T19:09:19.116Z,14.40
2023-04-09T19:11:47.521Z,14.30
2023-04-09T19:14:16.016Z,14.30
2023-04-09T19:16:44.814Z,14.70
2023-04-09T19:19:13.363Z,14.10
2023-04-09T19:21:43.080Z,14.00
2023-04-09T19:24:11.429Z,13.90
2023-04-09T19:26:39.989Z,13.80
2023-04-09T19:29:08.464Z,13.80
2023-04-09T19:31:37.006Z,13.70
2023-04-09T19:34:06.178Z,13.70
2023-04-09T19:36:34.730Z,13.60
2023-04-09T19:39:05.686Z,13.50
2023-04-09T19:41:34.279Z,13.40
2023-04-09T19:44:03.369Z,13.40
2023-04-09T19:46:31.717Z,13.60
2023-04-09T19:49:00.060Z,13.30
2023-04-09T19:51:28.933Z,13.20
2023-04-09T19:53:57.949Z,13.20
2023-04-09T19:56:27.690Z,13.10
2023-04-09T19:58:56.411Z,13.00
2023-04-09T20:01:24.827Z,13.00
2023-04-09T20:03:53.584Z,13.00
2023-04-09T20:06:22.882Z,12.90
2023-04-09T20:08:53.201Z,12.90
2023-04-09T20:11:21.899Z,12.80
2023-04-09T20:13:52.084Z,12.80
2023-04-09T20:16:20.590Z,12.70
2023-04-09T20:18:49.007Z,12.70
2023-04-09T20:21:17.411Z,12.60
2023-04-09T20:23:46.268Z,13.40
2023-04-09T20:26:14.715Z,13.00
2023-04-09T20:28:43.227Z,12.50
2023-04-09T20:31:13.083Z,12.50
2023-04-09T20:33:41.618Z,12.40
2023-04-09T20:36:16.209Z,12.40
2023-04-09T20:38:44.648Z,12.30
2023-04-09T20:41:12.979Z,12.30
2023-04-09T20:43:41.373Z,12.20
2023-04-09T20:46:10.013Z,12.20
2023-04-09T20:48:39.799Z,12.10
2023-04-09T20:51:11.318Z,12.10
2023-04-09T20:53:40.075Z,12.00
2023-04-09T20:56:09.268Z,12.00
2023-04-09T20:58:37.778Z,12.00
2023-04-09T21:01:07.851Z,11.90
2023-04-09T21:03:37.059Z,11.90
2023-04-09T21:06:08.273Z,11.80
2023-04-09T21:08:38.459Z,11.80
2023-04-09T21:11:07.147Z,11.80
2023-04-09T21:13:46.840Z,11.70
2023-04-09T21:16:22.914Z,11.70
2023-04-09T21:18:51.636Z,11.60
2023-04-09T21:21:21.599Z,11.60
2023-04-09T21:23:49.993Z,11.50
2023-04-09T21:26:18.393Z,11.50
2023-04-09T21:28:50.522Z,11.50
2023-04-09T21:31:19.372Z,11.40
2023-04-09T21:33:47.882Z,11.40
2023-04-09T21:36:16.432Z,11.30
2023-04-09T21:38:46.304Z,11.40
2023-04-09T21:41:14.767Z,11.20
2023-04-09T21:43:43.252Z,11.60
2023-04-09T21:46:11.909Z,11.20
2023-04-09T21:48:40.980Z,11.10
2023-04-09T21:51:11.650Z,11.10
2023-04-09T21:53:40.441Z,11.00
2023-04-09T21:56:11.112Z,11.30
2023-04-09T21:58:39.487Z,10.90
2023-04-09T22:01:15.710Z,10.90
2023-04-09T22:03:51.365Z,10.90
2023-04-09T22:06:20.096Z,10.90
2023-04-09T22:08:55.631Z,11.00
2023-04-09T22:11:28.701Z,10.70
2023-04-09T22:13:57.910Z,10.70
2023-04-09T22:16:27.014Z,10.70
2023-04-09T22:18:56.169Z,10.60
2023-04-09T22:21:25.287Z,10.50
2023-04-09T22:23:53.683Z,10.50
2023-04-09T22:26:22.677Z,10.40
2023-04-09T22:28:52.575Z,10.50
2023-04-09T22:31:22.027Z,10.40
2023-04-09T22:33:50.606Z,10.40
2023-04-09T22:36:18.996Z,10.30
2023-04-09T22:38:47.475Z,10.30
2023-04-09T22:41:17.645Z,10.20
2023-04-09T22:43:46.120Z,10.20
2023-04-09T22:46:15.992Z,10.20
2023-04-09T22:48:46.533Z,10.10
2023-04-09T22:51:15.583Z,11.00
2023-04-09T22:53:44.017Z,10.10
2023-04-09T22:56:12.652Z,10.10
2023-04-09T22:58:41.206Z,10.10
2023-04-09T23:01:09.726Z,10.00
2023-04-09T23:03:39.525Z,10.00
2023-04-09T23:06:08.223Z,10.00
2023-04-09T23:08:37.811Z,10.00
2023-04-09T23:11:07.519Z,9.90
2023-04-09T23:13:36.111Z,9.90
2023-04-09T23:16:06.993Z,9.80
2023-04-09T23:18:38.110Z,9.80
2023-04-09T23:21:07.738Z,9.70
2023-04-09T23:23:36.465Z,9.70
2023-04-09T23:26:05.996Z,9.70
2023-04-09T23:28:34.516Z,9.70
2023-04-09T23:31:03.055Z,9.60
2023-04-09T23:33:32.559Z,9.60
2023-04-09T23:36:02.261Z,9.70
2023-04-09T23:38:30.810Z,10.00
2023-04-09T23:40:59.161Z,9.50
2023-04-09T23:43:27.644Z,9.50
2023-04-09T23:45:56.109Z,9.50
2023-04-09T23:48:24.421Z,9.40
2023-04-09T23:50:52.812Z,9.40
2023-04-09T23:53:22.568Z,9.40
2023-04-09T23:55:51.128Z,9.30
2023-04-09T23:58:19.769Z,10.00
